| time (UTC) | temp C | wind direction | speed KPH | gust KPH | rain 1hr cm | rain 24hr cm | rain mn cm | humidity % | barometer mb |
| 20260507141540 | 18 | 126 | 11.3 | 20.9 | 0.00 | 0.00 | 0.00 | 81 | 1009.7 |
| 20260507140037 | 18 | 141 | 8.0 | 19.3 | 0.00 | 0.00 | 0.00 | 80 | 1009.8 |
| 20260507134549 | 18 | 188 | 9.7 | 20.9 | 0.00 | 0.00 | 0.00 | 78 | 1010.1 |
| 20260507133043 | 18 | 187 | 4.8 | 17.7 | 0.00 | 0.00 | 0.00 | 78 | 1010.2 |
| 20260507131539 | 18 | 109 | 12.9 | 20.9 | 0.00 | 0.00 | 0.00 | 77 | 1010.1 |
| 20260507130042 | 18 | 121 | 16.1 | 30.6 | 0.00 | 0.00 | 0.00 | 75 | 1010.3 |
| 20260507124538 | 19 | 105 | 20.9 | 35.4 | 0.00 | 0.00 | 0.00 | 72 | 1010.6 |
| 20260507123042 | 19 | 98 | 17.7 | 32.2 | 0.00 | 0.00 | 0.00 | 71 | 1010.6 |
| 20260507121540 | 19 | 96 | 20.9 | 30.6 | 0.00 | 0.00 | 0.00 | 70 | 1010.7 |
| 20260507120040 | 19 | 101 | 22.5 | 32.2 | 0.00 | 0.00 | 0.00 | 70 | 1010.8 |
| 20260507114545 | 19 | 86 | 24.1 | 32.2 | 0.00 | 0.00 | 0.00 | 72 | 1010.7 |
| 20260507113039 | 19 | 92 | 27.4 | 40.2 | 0.00 | 0.00 | 0.00 | 71 | 1010.6 |
| 20260507111548 | 19 | 117 | 20.9 | 29.0 | 0.00 | 0.00 | 0.00 | 71 | 1011.0 |
| 20260507110036 | 19 | 110 | 22.5 | 35.4 | 0.00 | 0.00 | 0.00 | 72 | 1011.0 |
| 20260507104536 | 19 | 93 | 25.7 | 37.0 | 0.00 | 0.00 | 0.00 | 73 | 1011.2 |
| 20260507103041 | 18 | 89 | 25.7 | 40.2 | 0.00 | 0.00 | 0.00 | 73 | 1011.2 |
| 20260507101538 | 18 | 111 | 27.4 | 37.0 | 0.00 | 0.00 | 0.00 | 74 | 1011.1 |
| 20260507100037 | 18 | 107 | 22.5 | 37.0 | 0.00 | 0.00 | 0.00 | 74 | 1011.3 |
| 20260507094541 | 18 | 122 | 20.9 | 30.6 | 0.00 | 0.00 | 0.00 | 74 | 1011.2 |
| 20260507093043 | 18 | 105 | 22.5 | 33.8 | 0.00 | 0.00 | 0.00 | 73 | 1011.5 |
| 20260507091538 | 18 | 103 | 17.7 | 29.0 | 0.00 | 0.00 | 0.00 | 72 | 1011.3 |
| 20260507090039 | 18 | 107 | 19.3 | 30.6 | 0.00 | 0.00 | 0.00 | 71 | 1011.3 |
| 20260507084541 | 18 | 81 | 19.3 | 32.2 | 0.00 | 0.00 | 0.00 | 71 | 1011.3 |
| 20260507083039 | 18 | 101 | 19.3 | 29.0 | 0.00 | 0.00 | 0.00 | 72 | 1011.4 |
| 20260507081538 | 18 | 74 | 19.3 | 27.4 | 0.00 | 0.00 | 0.00 | 73 | 1011.3 |
| 20260507080049 | 18 | 360 | 16.1 | 24.1 | 0.00 | 0.00 | 0.00 | 72 | 1011.4 |
| 20260507074540 | 18 | 75 | 16.1 | 22.5 | 0.00 | 0.00 | 0.00 | 72 | 1011.2 |
| 20260507073036 | 18 | 107 | 9.7 | 19.3 | 0.00 | 0.00 | 0.00 | 72 | 1011.2 |
| 20260507071536 | 18 | 96 | 8.0 | 17.7 | 0.00 | 0.00 | 0.00 | 72 | 1010.9 |
| 20260507070048 | 17 | 41 | 9.7 | 16.1 | 0.00 | 0.00 | 0.00 | 74 | 1010.7 |
| 20260507064546 | 17 | 64 | 9.7 | 16.1 | 0.00 | 0.00 | 0.00 | 76 | 1010.6 |
| 20260507063038 | 16 | 36 | 4.8 | 9.7 | 0.00 | 0.00 | 0.00 | 79 | 1010.7 |
| 20260507061538 | 15 | 58 | 1.6 | 6.4 | 0.00 | 0.00 | 0.00 | 81 | 1010.6 |
| 20260507060037 | 15 | 32 | 1.6 | 4.8 | 0.00 | 0.00 | 0.00 | 80 | 1010.7 |
| 20260507054540 | 14 | 0 | 0.0 | 6.4 | 0.00 | 0.00 | 0.00 | 81 | 1010.7 |
| 20260507053041 | 14 | 13 | 1.6 | 6.4 | 0.00 | 0.00 | 0.00 | 81 | 1010.7 |
| 20260507051541 | 14 | 5 | 1.6 | 6.4 | 0.00 | 0.00 | 0.00 | 80 | 1010.5 |
| 20260507050041 | 14 | 352 | 0.0 | 8.0 | 0.00 | 0.00 | 0.00 | 80 | 1010.4 |
| 20260507044538 | 14 | 0 | 0.0 | 3.2 | 0.00 | 0.00 | 0.00 | 80 | 1010.4 |
| 20260507043035 | 14 | 38 | 3.2 | 8.0 | 0.00 | 0.00 | 0.00 | 80 | 1010.3 |
| 20260507041552 | 15 | 21 | 3.2 | 8.0 | 0.00 | 0.00 | 0.00 | 79 | 1010.2 |
| 20260507040041 | 15 | 13 | 4.8 | 9.7 | 0.00 | 0.00 | 0.00 | 79 | 1010.2 |
| 20260507034538 | 15 | 28 | 3.2 | 8.0 | 0.00 | 0.00 | 0.00 | 78 | 1010.2 |
| 20260507033042 | 15 | 36 | 3.2 | 8.0 | 0.00 | 0.00 | 0.00 | 78 | 1010.0 |
| 20260507031536 | 15 | 74 | 3.2 | 6.4 | 0.00 | 0.00 | 0.00 | 78 | 1010.2 |
| 20260507030037 | 15 | 70 | 0.0 | 8.0 | 0.00 | 0.00 | 0.00 | 79 | 1010.3 |
| 20260507024542 | 15 | 51 | 4.8 | 8.0 | 0.00 | 0.00 | 0.00 | 79 | 1010.3 |
| 20260507023041 | 15 | 49 | 4.8 | 6.4 | 0.00 | 0.00 | 0.00 | 79 | 1010.3 |
| 20260507021539 | 16 | 44 | 1.6 | 4.8 | 0.00 | 0.00 | 0.00 | 79 | 1010.7 |
| 20260507020039 | 16 | 41 | 3.2 | 6.4 | 0.00 | 0.00 | 0.00 | 79 | 1010.7 |
| 20260507014550 | 16 | 44 | 4.8 | 8.0 | 0.00 | 0.00 | 0.00 | 79 | 1010.8 |
| 20260507013044 | 15 | 30 | 4.8 | 8.0 | 0.00 | 0.00 | 0.00 | 80 | 1010.8 |
| 20260507011539 | 15 | 65 | 3.2 | 9.7 | 0.00 | 0.00 | 0.00 | 80 | 1010.7 |
| 20260507010042 | 16 | 42 | 8.0 | 11.3 | 0.00 | 0.00 | 0.00 | 80 | 1010.7 |
| 20260507004540 | 16 | 58 | 8.0 | 11.3 | 0.00 | 0.00 | 0.00 | 80 | 1010.7 |
| 20260507003039 | 16 | 44 | 6.4 | 14.5 | 0.00 | 0.00 | 0.00 | 81 | 1010.9 |
| 20260507001555 | 16 | 34 | 8.0 | 16.1 | 0.00 | 0.00 | 0.00 | 81 | 1010.9 |
| 20260507000041 | 16 | 32 | 6.4 | 12.9 | 0.00 | 0.00 | 0.00 | 81 | 1011.1 |
| 20260506234541 | 16 | 57 | 9.7 | 14.5 | 0.00 | 0.00 | 0.00 | 82 | 1011.2 |
| 20260506233044 | 16 | 36 | 6.4 | 9.7 | 0.00 | 0.00 | 0.00 | 82 | 1011.3 |
| 20260506231544 | 16 | 38 | 6.4 | 9.7 | 0.00 | 0.00 | 0.00 | 81 | 1011.2 |
| 20260506230037 | 16 | 46 | 4.8 | 8.0 | 0.00 | 0.00 | 0.00 | 82 | 1011.4 |
| 20260506224535 | 16 | 44 | 4.8 | 9.7 | 0.00 | 0.00 | 0.00 | 82 | 1011.3 |
| 20260506223058 | 16 | 45 | 6.4 | 9.7 | 0.00 | 0.00 | 0.00 | 81 | 1011.4 |
| 20260506221539 | 17 | 40 | 3.2 | 6.4 | 0.00 | 0.00 | 0.00 | 81 | 1011.3 |
| 20260506220038 | 17 | 84 | 4.8 | 9.7 | 0.00 | 0.00 | 0.00 | 81 | 1011.4 |
| 20260506214540 | 17 | 88 | 6.4 | 9.7 | 0.00 | 0.00 | 0.00 | 81 | 1011.5 |
| 20260506213038 | 17 | 100 | 4.8 | 6.4 | 0.00 | 0.00 | 0.00 | 81 | 1011.6 |
| 20260506211545 | 17 | 96 | 4.8 | 9.7 | 0.00 | 0.00 | 0.00 | 81 | 1011.8 |
| 20260506210042 | 17 | 89 | 4.8 | 11.3 | 0.00 | 0.00 | 0.00 | 81 | 1011.7 |
| 20260506204538 | 17 | 105 | 8.0 | 11.3 | 0.00 | 0.00 | 0.00 | 81 | 1011.5 |
| 20260506203043 | 17 | 98 | 6.4 | 14.5 | 0.00 | 0.00 | 0.00 | 81 | 1011.5 |
| 20260506201537 | 17 | 88 | 8.0 | 14.5 | 0.00 | 0.00 | 0.00 | 80 | 1011.2 |
| 20260506200108 | 17 | 90 | 8.0 | 14.5 | 0.00 | 0.00 | 0.00 | 80 | 1011.2 |
| 20260506194542 | 17 | 96 | 8.0 | 17.7 | 0.00 | 0.00 | 0.00 | 80 | 1011.0 |
| 20260506193040 | 17 | 107 | 9.7 | 16.1 | 0.00 | 0.00 | 0.00 | 80 | 1010.9 |
| 20260506191538 | 17 | 105 | 12.9 | 17.7 | 0.00 | 0.00 | 0.00 | 79 | 1010.8 |
| 20260506190038 | 18 | 132 | 9.7 | 20.9 | 0.00 | 0.00 | 0.00 | 79 | 1010.4 |
| 20260506184535 | 18 | 105 | 12.9 | 19.3 | 0.00 | 0.00 | 0.00 | 78 | 1010.4 |
| 20260506183041 | 18 | 101 | 16.1 | 20.9 | 0.00 | 0.00 | 0.00 | 78 | 1010.3 |
| 20260506181542 | 18 | 109 | 9.7 | 27.4 | 0.00 | 0.00 | 0.00 | 77 | 1010.1 |
| 20260506180048 | 18 | 119 | 19.3 | 27.4 | 0.00 | 0.00 | 0.00 | 77 | 1010.1 |
| 20260506174538 | 18 | 124 | 12.9 | 25.7 | 0.00 | 0.00 | 0.00 | 76 | 1010.2 |
| 20260506173037 | 18 | 104 | 20.9 | 29.0 | 0.00 | 0.00 | 0.00 | 75 | 1010.3 |
| 20260506171547 | 18 | 173 | 16.1 | 27.4 | 0.00 | 0.00 | 0.00 | 74 | 1010.2 |
| 20260506170042 | 18 | 110 | 19.3 | 33.8 | 0.00 | 0.00 | 0.00 | 73 | 1010.1 |
| 20260506164539 | 19 | 108 | 19.3 | 33.8 | 0.00 | 0.00 | 0.00 | 73 | 1009.8 |
| 20260506163046 | 19 | 109 | 22.5 | 32.2 | 0.00 | 0.00 | 0.00 | 73 | 1009.7 |
| 20260506161549 | 19 | 106 | 20.9 | 33.8 | 0.00 | 0.00 | 0.00 | 72 | 1009.8 |
| 20260506160037 | 19 | 144 | 20.9 | 40.2 | 0.00 | 0.00 | 0.00 | 71 | 1009.9 |
| 20260506154537 | 19 | 111 | 24.1 | 38.6 | 0.00 | 0.00 | 0.00 | 70 | 1009.8 |
| 20260506153043 | 20 | 115 | 27.4 | 38.6 | 0.00 | 0.00 | 0.00 | 71 | 1009.8 |
| 20260506151540 | 20 | 130 | 22.5 | 38.6 | 0.00 | 0.00 | 0.00 | 71 | 1009.8 |
| 20260506150038 | 20 | 135 | 24.1 | 37.0 | 0.00 | 0.00 | 0.00 | 70 | 1009.8 |
| 20260506144538 | 20 | 107 | 27.4 | 41.8 | 0.00 | 0.00 | 0.00 | 69 | 1010.1 |
| 20260506143042 | 20 | 104 | 25.7 | 41.8 | 0.00 | 0.00 | 0.00 | 70 | 1010.2 |